Time;durP1;ratioP1;P1;durP2;ratioP2;P2;SDS_P1;SDS_P2;PMS_P1;PMS_P2;Temp;Humidity;BMP_temperature;BMP_pressure;BME280_temperature;BME280_humidity;BME280_pressure;Samples;Min_cycle;Max_cycle;Signal;HPM_P1;HPM_P2
2022/04/11 00:00:10;;;;;;;8.65;2.47;;;;;;;3.54;73.00;101093.22;4914354;29;20044;-71
2022/04/11 00:02:35;;;;;;;6.38;1.80;;;;;;;3.45;73.07;101091.22;4914017;29;20482;-71
2022/04/11 00:05:01;;;;;;;9.52;2.72;;;;;;;3.41;73.60;101094.59;4913981;29;20048;-71
2022/04/11 00:07:26;;;;;;;6.10;1.80;;;;;;;3.35;73.71;101084.81;4916595;29;20042;-71
2022/04/11 00:09:52;;;;;;;6.43;2.10;;;;;;;3.36;73.53;101090.94;4917793;29;20035;-71
2022/04/11 00:12:17;;;;;;;8.00;2.65;;;;;;;3.36;73.35;101093.56;4917614;29;20510;-72
2022/04/11 00:14:42;;;;;;;6.07;1.80;;;;;;;3.29;73.60;101095.06;4917592;29;20040;-71
2022/04/11 00:17:08;;;;;;;5.40;2.05;;;;;;;3.25;74.06;101081.06;4917508;29;20633;-71
2022/04/11 00:19:33;;;;;;;5.20;1.60;;;;;;;3.27;73.61;101094.13;4912440;29;20080;-71
2022/04/11 00:21:58;;;;;;;7.57;2.50;;;;;;;3.28;73.55;101085.47;4917152;29;20092;-71
2022/04/11 00:24:24;;;;;;;7.57;2.47;;;;;;;3.32;73.60;101083.84;4916694;29;20135;-71
2022/04/11 00:26:49;;;;;;;9.43;2.70;;;;;;;3.24;73.61;101078.38;4917135;29;20529;-70
2022/04/11 00:29:14;;;;;;;7.00;2.78;;;;;;;3.33;73.73;101086.53;4919583;29;20047;-71
2022/04/11 00:31:40;;;;;;;6.53;2.30;;;;;;;3.36;73.40;101085.72;4916979;29;20088;-71
2022/04/11 00:34:05;;;;;;;8.63;2.60;;;;;;;3.38;73.04;101079.72;4915849;29;20036;-71
2022/04/11 00:36:30;;;;;;;9.60;2.30;;;;;;;3.34;72.88;101082.19;4917155;29;20087;-71
2022/04/11 00:38:56;;;;;;;8.02;2.63;;;;;;;3.33;73.34;101088.22;4916727;29;20032;-72
2022/04/11 00:41:22;;;;;;;6.22;2.35;;;;;;;3.25;73.36;101101.03;4917071;29;20035;-71
2022/04/11 00:43:47;;;;;;;5.88;2.30;;;;;;;3.12;73.99;101091.94;4915655;29;20036;-71
2022/04/11 00:46:12;;;;;;;7.35;3.03;;;;;;;3.02;74.22;101090.72;4917111;29;20044;-71
2022/04/11 00:48:40;;;;;;;7.05;2.90;;;;;;;2.94;74.25;101100.00;4916787;29;20115;-71
2022/04/11 00:51:14;;;;;;;7.80;2.85;;;;;;;2.86;74.89;101098.88;4913491;29;20051;-71
2022/04/11 00:53:43;;;;;;;9.02;2.90;;;;;;;2.77;75.21;101108.97;4916814;29;20095;-71
2022/04/11 00:56:11;;;;;;;8.30;3.00;;;;;;;2.72;75.64;101102.69;4914169;29;20047;-71
2022/04/11 00:58:38;;;;;;;6.20;2.67;;;;;;;2.63;76.14;101098.06;4916730;29;20071;-71
2022/04/11 01:01:05;;;;;;;8.63;3.00;;;;;;;2.56;76.94;101101.28;4916499;29;20047;-71
2022/04/11 01:03:31;;;;;;;6.53;2.50;;;;;;;2.51;77.08;101102.84;4914317;29;20058;-71
2022/04/11 01:05:57;;;;;;;6.70;2.22;;;;;;;2.47;77.63;101101.84;4927515;29;20088;-71
2022/04/11 01:08:22;;;;;;;7.72;2.92;;;;;;;2.38;77.44;101106.72;4916476;29;20495;-71
2022/04/11 01:10:48;;;;;;;7.88;2.90;;;;;;;2.38;77.75;101111.94;4911504;29;20039;-71
2022/04/11 01:13:15;;;;;;;9.50;2.85;;;;;;;2.36;77.95;101108.41;4915131;29;20039;-71
2022/04/11 01:15:40;;;;;;;6.93;2.80;;;;;;;2.33;77.91;101103.97;4914524;29;20048;-71
2022/04/11 01:18:06;;;;;;;7.50;2.58;;;;;;;2.31;77.87;101110.84;4914289;29;20042;-71
2022/04/11 01:20:31;;;;;;;5.65;2.30;;;;;;;2.29;77.76;101102.06;4929870;29;20048;-71
2022/04/11 01:22:56;;;;;;;7.35;2.60;;;;;;;2.24;77.64;101093.19;4912555;29;20103;-71
2022/04/11 01:25:22;;;;;;;8.00;2.80;;;;;;;2.19;78.15;101100.84;4915969;29;20058;-71
2022/04/11 01:27:49;;;;;;;7.03;2.88;;;;;;;2.12;78.27;101103.16;4930903;29;20043;-71
2022/04/11 01:30:16;;;;;;;4.72;2.38;;;;;;;2.08;78.91;101107.38;4914118;29;20411;-71
2022/04/11 01:32:43;;;;;;;6.35;2.90;;;;;;;2.05;78.93;101109.88;4914078;29;20127;-71
2022/04/11 01:35:21;;;;;;;6.20;2.95;;;;;;;2.02;78.31;101107.16;4914665;29;20143;-71
2022/04/11 01:37:46;;;;;;;6.15;2.58;;;;;;;1.97;78.86;101108.69;4915985;29;20036;-71
2022/04/11 01:40:12;;;;;;;7.00;2.78;;;;;;;1.89;79.08;101108.41;4914530;29;20562;-71
2022/04/11 01:42:38;;;;;;;7.45;2.67;;;;;;;1.86;79.17;101110.91;4911059;29;20527;-71
2022/04/11 01:45:06;;;;;;;6.72;2.55;;;;;;;1.88;79.20;101100.53;4930376;29;20036;-71
2022/04/11 01:47:32;;;;;;;7.40;3.42;;;;;;;1.86;79.68;101095.28;4923110;29;20125;-71
2022/04/11 01:49:57;;;;;;;8.65;3.30;;;;;;;1.84;79.47;101096.06;4912772;29;20032;-71
2022/04/11 01:52:23;;;;;;;7.25;3.08;;;;;;;1.76;79.99;101106.16;4915883;29;20063;-71
2022/04/11 01:54:48;;;;;;;6.47;2.65;;;;;;;1.70;79.97;101101.63;4910387;29;20406;-71
2022/04/11 01:57:13;;;;;;;7.32;2.67;;;;;;;1.62;79.39;101104.72;4915449;29;20032;-71
2022/04/11 01:59:39;;;;;;;9.43;3.15;;;;;;;1.56;80.02;101105.38;4920616;29;20091;-71
2022/04/11 02:02:04;;;;;;;5.95;2.50;;;;;;;1.53;80.24;101100.94;4913937;29;20410;-71
2022/04/11 02:04:31;;;;;;;8.20;3.25;;;;;;;1.51;80.06;101109.50;4915367;29;20091;-71
2022/04/11 02:06:57;;;;;;;7.28;2.80;;;;;;;1.49;80.73;101105.94;4928978;29;20028;-71
2022/04/11 02:09:24;;;;;;;8.77;3.08;;;;;;;1.42;80.87;101111.75;4912960;29;20028;-71
2022/04/11 02:11:49;;;;;;;5.93;3.08;;;;;;;1.40;80.63;101109.06;4913804;29;20047;-71
2022/04/11 02:14:15;;;;;;;9.02;3.63;;;;;;;1.39;80.77;101112.53;4915212;29;20076;-71
2022/04/11 02:16:40;;;;;;;5.70;3.15;;;;;;;1.37;80.44;101110.69;4915413;29;20036;-71
2022/04/11 02:19:05;;;;;;;7.40;3.20;;;;;;;1.31;80.86;101109.59;4915181;29;20035;-71
2022/04/11 02:21:31;;;;;;;5.10;2.58;;;;;;;1.25;80.98;101109.34;4927540;29;20040;-71
2022/04/11 02:23:58;;;;;;;6.45;2.60;;;;;;;1.25;81.13;101111.94;4913919;29;20032;-71
2022/04/11 02:26:23;;;;;;;8.63;2.70;;;;;;;1.24;81.27;101107.56;4915152;29;20032;-71
2022/04/11 02:28:48;;;;;;;10.95;3.15;;;;;;;1.17;81.53;101113.34;4913466;29;20036;-71
2022/04/11 02:31:14;;;;;;;6.75;2.42;;;;;;;1.11;81.07;101114.81;4910615;29;20469;-71
2022/04/11 02:33:39;;;;;;;7.00;3.53;;;;;;;1.04;81.05;101114.53;4913703;29;20036;-71
2022/04/11 02:36:05;;;;;;;6.28;3.28;;;;;;;1.03;81.57;101111.91;4914957;29;20503;-71
2022/04/11 02:38:30;;;;;;;5.10;2.60;;;;;;;1.01;81.41;101117.03;4911400;29;20039;-71
2022/04/11 02:40:56;;;;;;;5.55;2.72;;;;;;;0.99;81.69;101113.47;4926777;29;20031;-71
2022/04/11 02:43:33;;;;;;;8.18;3.20;;;;;;;1.00;81.69;101119.56;4929598;29;20051;-71
2022/04/11 02:46:05;;;;;;;5.78;2.85;;;;;;;1.01;81.90;101108.34;4912080;29;20043;-71
2022/04/11 02:48:34;;;;;;;6.65;2.80;;;;;;;1.00;81.55;101107.47;4912178;29;20050;-71
2022/04/11 02:51:08;;;;;;;6.32;3.05;;;;;;;1.03;81.89;101104.09;4906033;29;20033;-71
2022/04/11 02:53:48;;;;;;;6.25;3.10;;;;;;;1.07;81.81;101118.97;4915677;29;20044;-71
2022/04/11 02:56:14;;;;;;;5.45;3.45;;;;;;;1.12;81.66;101107.06;4922366;29;20039;-71
2022/04/11 02:58:39;;;;;;;6.03;2.72;;;;;;;1.20;82.32;101109.97;4918763;29;20517;-71
2022/04/11 03:01:04;;;;;;;7.90;3.50;;;;;;;1.28;81.65;101109.50;4914492;29;20032;-71
2022/04/11 03:03:31;;;;;;;7.55;2.95;;;;;;;1.40;82.19;101114.28;4913362;29;20056;-71
2022/04/11 03:05:57;;;;;;;4.63;2.67;;;;;;;1.56;82.43;101100.16;4911522;29;20491;-71
2022/04/11 03:08:23;;;;;;;9.50;3.20;;;;;;;1.70;81.91;101103.31;4913319;29;20039;-71
2022/04/11 03:10:48;;;;;;;9.30;3.38;;;;;;;1.80;81.96;101100.22;4914581;29;20032;-71
2022/04/11 03:13:14;;;;;;;6.63;2.88;;;;;;;1.90;81.09;101101.47;4910336;29;20028;-71
2022/04/11 03:15:40;;;;;;;9.90;3.22;;;;;;;1.83;80.39;101107.28;4908607;29;20051;-71
2022/04/11 03:18:07;;;;;;;6.75;3.25;;;;;;;1.77;80.09;101099.25;4910844;29;20416;-71
2022/04/11 03:20:35;;;;;;;7.00;2.70;;;;;;;1.77;80.03;101101.84;4913282;29;20440;-71
2022/04/11 03:23:00;;;;;;;4.85;2.55;;;;;;;1.81;80.04;101101.09;4913219;29;20035;-71
2022/04/11 03:25:30;;;;;;;5.35;2.60;;;;;;;1.90;80.49;101101.47;4921648;29;20064;-71
2022/04/11 03:27:55;;;;;;;5.93;3.53;;;;;;;1.96;80.94;101096.50;4914320;29;20032;-71
2022/04/11 03:30:21;;;;;;;5.53;2.85;;;;;;;2.00;80.41;101092.31;4928612;29;20534;-71
2022/04/11 03:32:47;;;;;;;7.32;3.20;;;;;;;2.06;80.19;101097.72;4920808;29;20043;-72
2022/04/11 03:35:14;;;;;;;9.88;3.67;;;;;;;2.10;80.51;101092.69;4913041;29;20056;-71
2022/04/11 03:37:40;;;;;;;12.15;4.70;;;;;;;2.17;80.07;101102.53;4913100;29;20452;-71
2022/04/11 03:40:18;;;;;;;9.07;4.45;;;;;;;2.19;79.62;101107.78;4911458;29;20032;-71
2022/04/11 03:42:44;;;;;;;8.30;4.43;;;;;;;2.17;79.24;101106.81;4915977;29;20507;-71
2022/04/11 03:45:10;;;;;;;8.75;4.90;;;;;;;2.14;79.77;101109.31;4916617;29;20028;-71
2022/04/11 03:47:36;;;;;;;8.13;4.22;;;;;;;2.09;79.21;101109.13;4932420;29;20469;-71
2022/04/11 03:50:02;;;;;;;7.97;3.63;;;;;;;2.04;79.30;101105.47;4916570;29;20032;-71
2022/04/11 03:52:32;;;;;;;6.38;3.53;;;;;;;2.00;79.57;101111.41;4926477;29;20035;-71
2022/04/11 03:55:00;;;;;;;9.68;4.30;;;;;;;1.95;79.64;101112.94;4916589;29;20130;-71
2022/04/11 03:57:26;;;;;;;6.53;3.17;;;;;;;1.87;80.12;101103.97;4932477;29;20039;-71
2022/04/11 03:59:55;;;;;;;6.72;3.10;;;;;;;1.84;80.15;101103.84;4914189;29;20054;-71
2022/04/11 04:02:21;;;;;;;6.95;3.53;;;;;;;1.82;80.57;101102.91;4913017;29;20676;-71
2022/04/11 04:04:46;;;;;;;8.02;3.55;;;;;;;1.74;80.19;101106.09;4923725;29;20510;-72
2022/04/11 04:07:12;;;;;;;6.93;3.72;;;;;;;1.70;80.15;101104.22;4915366;29;20072;-72
2022/04/11 04:09:38;;;;;;;11.23;5.50;;;;;;;1.66;80.13;101107.50;4913624;29;20044;-72
2022/04/11 04:12:04;;;;;;;7.93;3.80;;;;;;;1.59;79.91;101109.81;4916914;29;20501;-71
2022/04/11 04:14:41;;;;;;;6.45;3.95;;;;;;;1.47;80.44;101105.91;4919787;29;20434;-71
2022/04/11 04:17:08;;;;;;;11.27;4.35;;;;;;;1.29;81.22;101100.84;4915349;29;20038;-72
2022/04/11 04:19:52;;;;;;;8.52;3.95;;;;;;;1.19;81.28;101109.09;4925160;29;20036;-71
2022/04/11 04:22:21;;;;;;;7.68;4.10;;;;;;;1.15;81.72;101106.31;4915913;29;20072;-72
2022/04/11 04:24:47;;;;;;;10.38;4.00;;;;;;;1.07;81.59;101108.59;4917923;29;20036;-72
2022/04/11 04:27:12;;;;;;;9.38;4.78;;;;;;;1.04;81.89;101104.16;4916122;29;20075;-71
2022/04/11 04:29:38;;;;;;;9.32;4.35;;;;;;;1.04;81.33;101103.25;4914451;29;20044;-71
2022/04/11 04:32:04;;;;;;;7.88;3.72;;;;;;;0.94;81.75;101116.69;4914592;29;20042;-71
2022/04/11 04:34:31;;;;;;;8.18;3.72;;;;;;;0.83;81.65;101114.53;4912081;29;20418;-71
2022/04/11 04:36:58;;;;;;;5.95;3.58;;;;;;;0.75;81.60;101115.91;4912524;29;20036;-71
2022/04/11 04:39:24;;;;;;;10.43;4.50;;;;;;;0.72;82.19;101114.91;4912954;29;20052;-71
2022/04/11 04:41:51;;;;;;;8.90;4.35;;;;;;;0.70;82.24;101107.03;4927149;29;20032;-71
2022/04/11 04:44:17;;;;;;;20.17;8.68;;;;;;;0.70;81.87;101111.34;4926703;29;20064;-72
2022/04/11 04:46:46;;;;;;;15.05;8.18;;;;;;;0.74;82.16;101114.16;4913279;29;20036;-72
2022/04/11 04:49:21;;;;;;;12.70;6.57;;;;;;;0.74;82.40;101118.47;4915639;29;20495;-71
2022/04/11 04:51:46;;;;;;;8.10;4.30;;;;;;;0.74;82.47;101118.47;4929042;29;20064;-71
2022/04/11 04:54:11;;;;;;;7.50;3.53;;;;;;;0.71;82.59;101119.22;4914659;29;20663;-73
2022/04/11 04:56:38;;;;;;;10.00;4.85;;;;;;;0.71;82.65;101114.03;4915376;29;20516;-72
2022/04/11 04:59:10;;;;;;;10.95;4.78;;;;;;;0.70;82.31;101114.81;4915055;29;20072;-71
2022/04/11 05:01:37;;;;;;;10.88;5.10;;;;;;;0.69;82.54;101118.25;4926865;29;20092;-71
2022/04/11 05:04:02;;;;;;;12.43;5.13;;;;;;;0.78;82.41;101110.84;4913325;29;21017;-71
2022/04/11 05:06:33;;;;;;;13.63;5.75;;;;;;;0.91;83.37;101111.38;4930268;29;20039;-71
2022/04/11 05:08:59;;;;;;;10.77;5.95;;;;;;;1.02;83.63;101111.03;4914520;29;20136;-71
2022/04/11 05:11:25;;;;;;;11.38;4.90;;;;;;;1.15;83.59;101111.50;4916412;29;20087;-71
2022/04/11 05:13:51;;;;;;;10.63;4.35;;;;;;;1.28;84.13;101108.56;4915160;29;20492;-71
2022/04/11 05:16:18;;;;;;;10.90;3.80;;;;;;;1.42;84.01;101112.63;4913036;29;20463;-71
2022/04/11 05:18:45;;;;;;;9.85;4.53;;;;;;;1.57;83.32;101117.53;4929145;29;20087;-71
2022/04/11 05:21:11;;;;;;;6.10;3.58;;;;;;;1.71;83.53;101115.50;4912072;29;20043;-72
2022/04/11 05:23:36;;;;;;;8.20;3.63;;;;;;;1.88;83.05;101111.81;4912616;29;20036;-71
2022/04/11 05:26:05;;;;;;;8.00;3.47;;;;;;;2.01;82.44;101120.09;4913676;29;20063;-71
2022/04/11 05:28:32;;;;;;;7.45;3.50;;;;;;;2.14;82.59;101118.00;4912638;29;20511;-72
2022/04/11 05:31:01;;;;;;;6.68;3.13;;;;;;;2.27;81.93;101113.25;4912095;29;20035;-71
2022/04/11 05:33:27;;;;;;;8.32;3.55;;;;;;;2.38;81.61;101115.44;4914402;29;20509;-71
2022/04/11 05:35:53;;;;;;;5.78;2.80;;;;;;;2.49;81.43;101120.13;4914110;29;20467;-71
2022/04/11 05:38:19;;;;;;;8.32;3.25;;;;;;;2.58;80.29;101123.06;4914866;29;20452;-71
2022/04/11 05:40:47;;;;;;;9.02;3.40;;;;;;;2.71;80.26;101122.69;4930392;29;20028;-71
2022/04/11 05:43:19;;;;;;;7.50;3.20;;;;;;;2.80;79.47;101128.22;4907379;29;20040;-71
2022/04/11 05:45:44;;;;;;;7.57;3.35;;;;;;;2.92;79.16;101125.13;4912260;29;20288;-71
2022/04/11 05:48:10;;;;;;;6.03;3.13;;;;;;;2.97;78.93;101126.19;4911587;29;20119;-71
2022/04/11 05:50:36;;;;;;;7.18;3.50;;;;;;;3.03;78.64;101136.81;4914621;29;20035;-71
2022/04/11 05:53:02;;;;;;;7.55;3.25;;;;;;;3.13;77.92;101126.72;4914439;29;20043;-72
2022/04/11 05:55:28;;;;;;;7.95;4.05;;;;;;;3.16;77.96;101130.28;4915801;29;20036;-72
2022/04/11 05:57:54;;;;;;;7.38;3.58;;;;;;;3.29;78.08;101134.19;4913895;29;20040;-71
2022/04/11 06:00:19;;;;;;;7.25;3.50;;;;;;;3.34;77.39;101129.16;4915497;29;20048;-71
2022/04/11 06:02:46;;;;;;;11.05;3.08;;;;;;;3.45;77.04;101131.25;4914286;29;20448;-71
2022/04/11 06:05:13;;;;;;;6.97;3.38;;;;;;;3.54;76.90;101135.91;4906099;29;20035;-71
2022/04/11 06:07:40;;;;;;;8.55;3.47;;;;;;;3.49;76.03;101133.13;4913324;29;20036;-71
2022/04/11 06:10:07;;;;;;;8.13;2.58;;;;;;;3.60;75.69;101135.19;4914331;29;20036;-72
2022/04/11 06:12:33;;;;;;;6.32;3.00;;;;;;;3.73;75.46;101127.78;4913970;29;20035;-71
2022/04/11 06:14:59;;;;;;;7.78;3.13;;;;;;;3.80;75.35;101128.88;4919226;29;20047;-72
2022/04/11 06:17:24;;;;;;;7.18;2.88;;;;;;;3.90;74.84;101135.25;4926729;29;20041;-72
2022/04/11 06:19:54;;;;;;;6.25;2.95;;;;;;;3.98;74.45;101132.88;4914179;29;20036;-71
2022/04/11 06:22:21;;;;;;;6.13;3.20;;;;;;;4.02;74.18;101130.41;4913509;29;20088;-71
2022/04/11 06:24:48;;;;;;;9.13;3.45;;;;;;;4.14;74.18;101130.78;4913690;29;20040;-71
2022/04/11 06:27:14;;;;;;;6.47;3.60;;;;;;;4.27;74.05;101137.25;4909390;29;20592;-71
2022/04/11 06:29:41;;;;;;;5.63;3.47;;;;;;;4.35;73.87;101135.75;4915156;29;20042;-72
2022/04/11 06:32:07;;;;;;;8.02;3.10;;;;;;;4.46;73.13;101141.28;4920517;29;20118;-72
2022/04/11 06:34:35;;;;;;;6.13;2.80;;;;;;;4.51;72.85;101151.88;4913829;29;20568;-72
2022/04/11 06:37:01;;;;;;;7.82;2.45;;;;;;;4.56;72.25;101143.31;4913879;29;20032;-71
2022/04/11 06:39:27;;;;;;;7.85;3.03;;;;;;;4.66;72.27;101140.94;4921892;29;20027;-71
2022/04/11 06:41:56;;;;;;;5.60;2.60;;;;;;;4.76;71.69;101142.97;4926689;23;20135;-76
2022/04/11 06:44:23;;;;;;;7.57;2.75;;;;;;;4.86;71.98;101138.88;4914145;29;20052;-76
2022/04/11 06:46:54;;;;;;;4.90;2.40;;;;;;;4.96;71.84;101144.38;4912995;29;20143;-77
2022/04/11 06:49:20;;;;;;;6.45;2.33;;;;;;;5.00;71.03;101137.50;4897480;29;20827;-76
2022/04/11 06:51:45;;;;;;;6.60;2.47;;;;;;;5.11;70.99;101136.06;4914807;29;20040;-77
2022/04/11 06:54:11;;;;;;;6.15;2.58;;;;;;;5.17;70.75;101140.56;4914963;29;20040;-76
2022/04/11 06:56:36;;;;;;;4.70;2.53;;;;;;;5.26;70.06;101132.94;4914817;29;20087;-76
2022/04/11 06:59:01;;;;;;;5.53;2.00;;;;;;;5.35;69.32;101134.91;4914960;29;20032;-76
2022/04/11 07:01:26;;;;;;;8.52;3.22;;;;;;;5.42;69.37;101131.56;4914050;29;20131;-75
2022/04/11 07:03:52;;;;;;;5.38;2.70;;;;;;;5.53;69.07;101135.38;4913687;29;20040;-77
2022/04/11 07:06:18;;;;;;;6.78;2.60;;;;;;;5.62;69.34;101135.56;4913763;29;20107;-76
2022/04/11 07:08:43;;;;;;;6.32;2.80;;;;;;;5.78;69.27;101131.56;4914552;29;20044;-77
2022/04/11 07:11:08;;;;;;;6.13;2.28;;;;;;;5.86;68.92;101137.88;4913617;29;20067;-77
2022/04/11 07:13:34;;;;;;;7.38;2.60;;;;;;;5.94;67.55;101143.31;4913044;29;20395;-77
2022/04/11 07:16:00;;;;;;;4.40;2.17;;;;;;;6.03;67.12;101146.16;4912666;29;20510;-77
2022/04/11 07:18:27;;;;;;;4.47;2.10;;;;;;;6.08;66.44;101149.75;4916684;29;20048;-75
2022/04/11 07:20:53;;;;;;;6.43;2.78;;;;;;;6.17;66.66;101141.19;4916470;29;20457;-77
2022/04/11 07:23:19;;;;;;;11.57;3.28;;;;;;;6.20;65.73;101143.88;4917005;29;20032;-77
2022/04/11 07:25:44;;;;;;;7.65;2.47;;;;;;;6.29;65.65;101148.47;4917177;29;20036;-77
2022/04/11 07:28:10;;;;;;;4.65;1.73;;;;;;;6.32;65.38;101152.03;4918157;29;20115;-76
2022/04/11 07:30:35;;;;;;;4.53;1.70;;;;;;;6.48;64.83;101149.72;4918501;29;20039;-77
2022/04/11 07:33:00;;;;;;;5.68;2.20;;;;;;;6.62;64.53;101150.00;4917049;29;20048;-77
2022/04/11 07:35:26;;;;;;;7.75;2.08;;;;;;;6.69;64.52;101141.41;4916300;29;20040;-77
2022/04/11 07:37:51;;;;;;;6.07;2.22;;;;;;;6.83;64.09;101153.03;4916077;29;20095;-77
2022/04/11 07:40:17;;;;;;;5.07;2.75;;;;;;;6.92;63.81;101152.34;4930806;29;20044;-77
2022/04/11 07:42:42;;;;;;;4.63;2.20;;;;;;;7.02;64.04;101147.28;4916097;29;20032;-77
2022/04/11 07:45:08;;;;;;;7.22;2.83;;;;;;;7.14;63.78;101143.09;4916997;29;20034;-76
2022/04/11 07:47:33;;;;;;;10.02;4.13;;;;;;;7.31;64.30;101149.53;4916765;29;20466;-77
2022/04/11 07:49:59;;;;;;;4.80;1.92;;;;;;;7.43;61.88;101143.59;4918099;29;20123;-77
2022/04/11 07:52:25;;;;;;;6.85;3.35;;;;;;;7.52;61.81;101140.22;4917822;29;20043;-77
2022/04/11 07:54:51;;;;;;;7.78;2.85;;;;;;;7.63;61.68;101139.53;4918394;29;20380;-76
2022/04/11 07:57:17;;;;;;;3.42;1.48;;;;;;;7.78;60.35;101135.38;4917985;29;20046;-77
2022/04/11 07:59:42;;;;;;;9.02;2.45;;;;;;;7.86;60.04;101133.75;4918124;29;20095;-77
2022/04/11 08:02:07;;;;;;;5.47;1.50;;;;;;;7.92;59.02;101138.22;4917685;29;20047;-77
2022/04/11 08:04:33;;;;;;;7.13;2.10;;;;;;;8.02;59.36;101142.75;4916003;29;20028;-76
2022/04/11 08:06:59;;;;;;;4.63;1.30;;;;;;;8.14;58.60;101148.16;4917176;29;20044;-76
2022/04/11 08:09:24;;;;;;;4.90;1.40;;;;;;;8.22;57.33;101148.25;4916312;29;20110;-76
2022/04/11 08:11:50;;;;;;;6.00;1.23;;;;;;;8.23;56.59;101139.53;4917100;29;20044;-76
2022/04/11 08:14:16;;;;;;;5.13;1.80;;;;;;;8.31;56.92;101140.50;4916660;29;20538;-77
2022/04/11 08:16:41;;;;;;;4.25;1.42;;;;;;;8.39;55.56;101141.50;4913935;29;20044;-77
2022/04/11 08:19:07;;;;;;;4.03;1.20;;;;;;;8.50;55.71;101136.38;4917519;29;20043;-76
2022/04/11 08:21:32;;;;;;;4.40;1.40;;;;;;;8.55;55.09;101151.34;4917501;29;20604;-77
2022/04/11 08:23:57;;;;;;;4.45;1.10;;;;;;;8.54;54.84;101140.78;4917574;29;20040;-77
2022/04/11 08:26:23;;;;;;;8.18;1.88;;;;;;;8.71;55.20;101131.34;4917421;29;20032;-76
2022/04/11 08:28:48;;;;;;;5.30;1.38;;;;;;;8.87;54.12;101131.53;4915376;29;20047;-77
2022/04/11 08:31:13;;;;;;;4.93;0.90;;;;;;;8.92;52.59;101133.34;4917022;29;20047;-77
2022/04/11 08:33:39;;;;;;;5.50;1.27;;;;;;;8.79;52.20;101136.72;4913530;29;20028;-75
2022/04/11 08:36:04;;;;;;;5.07;1.23;;;;;;;8.76;52.53;101132.28;4915343;29;20074;-77
2022/04/11 08:38:30;;;;;;;5.68;1.27;;;;;;;8.83;52.75;101137.63;4916999;29;20152;-77
2022/04/11 08:40:55;;;;;;;4.80;0.90;;;;;;;8.92;51.82;101135.09;4916725;29;20040;-76
2022/04/11 08:43:24;;;;;;;5.60;1.30;;;;;;;8.96;51.02;101134.25;4917149;29;20192;-77
2022/04/11 08:45:53;;;;;;;5.85;1.30;;;;;;;9.15;51.72;101136.19;4913880;29;20403;-77
2022/04/11 08:48:21;;;;;;;11.07;1.92;;;;;;;9.29;50.98;101140.72;4916671;29;20119;-77
2022/04/11 08:50:46;;;;;;;6.00;1.48;;;;;;;9.42;51.23;101127.66;4913937;29;20507;-77
2022/04/11 08:53:12;;;;;;;8.15;1.40;;;;;;;9.47;49.59;101134.72;4916364;29;20068;-76
2022/04/11 08:55:38;;;;;;;4.13;1.17;;;;;;;9.45;48.24;101126.78;4916608;29;20411;-77
2022/04/11 08:58:03;;;;;;;3.85;1.23;;;;;;;9.48;49.73;101128.56;4916368;29;20048;-77
2022/04/11 09:00:30;;;;;;;3.53;1.08;;;;;;;9.56;51.07;101127.78;4917030;29;20117;-77
2022/04/11 09:02:56;;;;;;;4.03;1.42;;;;;;;9.75;50.58;101127.91;4913758;29;20036;-76
2022/04/11 09:05:23;;;;;;;4.70;1.65;;;;;;;9.97;48.67;101123.63;4916209;29;20047;-77
2022/04/11 09:07:59;;;;;;;3.45;1.23;;;;;;;9.81;48.05;101138.47;4914945;29;20040;-77
2022/04/11 09:10:32;;;;;;;4.93;1.35;;;;;;;9.84;47.78;101131.47;4915622;29;20508;-77
2022/04/11 09:13:00;;;;;;;5.10;1.35;;;;;;;9.84;47.00;101118.28;4913661;29;20040;-76
2022/04/11 09:15:26;;;;;;;4.05;1.30;;;;;;;9.87;45.93;101127.97;4913121;29;20040;-77
2022/04/11 09:17:54;;;;;;;4.15;1.33;;;;;;;9.95;46.63;101117.47;4916859;29;20047;-77
2022/04/11 09:20:27;;;;;;;4.88;1.30;;;;;;;10.07;46.16;101115.78;4913481;29;20036;-77
2022/04/11 09:22:53;;;;;;;5.97;2.40;;;;;;;10.17;44.57;101110.56;4916293;29;20119;-77
2022/04/11 09:25:21;;;;;;;2.63;0.98;;;;;;;10.30;45.63;101112.41;4914429;29;20118;-77
2022/04/11 09:27:47;;;;;;;4.20;1.25;;;;;;;10.51;45.30;101116.91;4916257;29;20033;-76
2022/04/11 09:30:25;;;;;;;5.45;1.27;;;;;;;10.56;45.23;101108.97;4916210;29;20471;-77
2022/04/11 09:33:01;;;;;;;7.63;1.58;;;;;;;10.73;43.13;101107.28;4911361;29;20524;-76
2022/04/11 09:35:36;;;;;;;2.70;1.20;;;;;;;11.03;43.75;101118.75;4915082;29;20059;-77
2022/04/11 09:38:14;;;;;;;5.15;1.15;;;;;;;11.18;42.91;101106.44;4913213;29;20047;-77
2022/04/11 09:40:50;;;;;;;4.85;1.40;;;;;;;11.36;43.36;101094.13;4915151;29;20127;-77
2022/04/11 09:43:17;;;;;;;3.90;1.17;;;;;;;11.50;41.26;101095.00;4913583;29;20036;-77
2022/04/11 09:45:45;;;;;;;2.50;1.00;;;;;;;11.66;42.21;101093.22;4915925;29;20046;-76
2022/04/11 09:48:14;;;;;;;3.10;0.98;;;;;;;11.94;42.32;101085.25;4912516;29;20040;-76
2022/04/11 09:50:40;;;;;;;3.58;1.00;;;;;;;12.03;41.55;101094.03;4915892;29;20396;-77
2022/04/11 09:53:20;;;;;;;3.00;1.20;;;;;;;11.89;38.22;101092.31;4915225;29;20039;-77
2022/04/11 09:55:50;;;;;;;3.33;1.08;;;;;;;11.80;38.50;101093.19;4914537;29;20388;-77
2022/04/11 09:58:17;;;;;;;3.15;1.30;;;;;;;11.73;38.03;101087.03;4914715;29;20088;-76
2022/04/11 10:00:43;;;;;;;3.42;1.10;;;;;;;11.62;38.92;101086.16;4911159;29;20037;-75
2022/04/11 10:03:08;;;;;;;4.90;1.30;;;;;;;11.53;39.39;101080.91;4915054;29;20040;-76
2022/04/11 10:05:35;;;;;;;4.82;1.17;;;;;;;11.54;40.69;101087.94;4915677;29;20063;-76
2022/04/11 10:08:03;;;;;;;3.72;1.42;;;;;;;11.48;40.62;101080.03;4915340;29;20386;-77
2022/04/11 10:10:31;;;;;;;5.60;1.45;;;;;;;11.50;41.18;101072.97;4910851;29;20039;-76
2022/04/11 10:12:59;;;;;;;4.05;1.27;;;;;;;11.83;39.41;101072.91;4913170;29;20111;-76
2022/04/11 10:15:24;;;;;;;5.90;1.85;;;;;;;11.93;39.68;101072.91;4915490;29;20028;-76
2022/04/11 10:17:50;;;;;;;4.15;1.35;;;;;;;11.73;39.76;101068.50;4913860;29;20479;-76
2022/04/11 10:20:35;;;;;;;3.05;1.17;;;;;;;11.35;40.32;101087.09;4914279;29;20087;-77
2022/04/11 10:23:06;;;;;;;4.75;1.58;;;;;;;11.35;40.81;101077.41;4913324;29;20507;-76
2022/04/11 10:25:38;;;;;;;3.17;1.20;;;;;;;11.69;38.60;101065.91;4913520;29;20035;-76
2022/04/11 10:28:13;;;;;;;3.13;1.40;;;;;;;11.82;38.10;101055.28;4913961;29;20028;-76
2022/04/11 10:30:38;;;;;;;5.47;1.15;;;;;;;12.13;38.34;101067.53;4912851;29;20503;-76
2022/04/11 10:33:05;;;;;;;5.50;1.50;;;;;;;12.30;38.41;101064.84;4912089;29;20031;-76
2022/04/11 10:35:33;;;;;;;5.25;1.40;;;;;;;12.13;37.25;101073.75;4911345;29;20044;-77
2022/04/11 10:37:58;;;;;;;3.63;1.02;;;;;;;11.51;37.77;101065.03;4912279;29;20036;-77
2022/04/11 10:40:23;;;;;;;5.93;1.38;;;;;;;11.33;39.15;101068.56;4912978;29;20040;-76
2022/04/11 10:42:58;;;;;;;4.03;1.15;;;;;;;11.09;34.09;101068.59;4910889;29;20039;-76
2022/04/11 10:45:49;;;;;;;4.72;1.05;;;;;;;11.30;35.25;101057.16;4913128;29;20032;-76
2022/04/11 10:48:14;;;;;;;4.10;1.00;;;;;;;11.66;36.71;101064.16;4912939;29;20047;-75
2022/04/11 10:50:41;;;;;;;3.75;1.30;;;;;;;12.01;36.16;101063.19;4913204;29;20243;-75
2022/04/11 10:53:12;;;;;;;3.58;1.60;;;;;;;12.14;36.61;101049.03;4913244;29;20044;-76
2022/04/11 10:56:06;;;;;;;3.75;1.10;;;;;;;11.97;36.47;101053.50;4914820;29;20050;-75
2022/04/11 10:58:58;;;;;;;4.15;1.27;;;;;;;11.57;35.85;101045.66;4924963;29;20049;-74
2022/04/11 11:01:46;;;;;;;4.87;1.20;;;;;;;11.14;36.82;101053.63;4912293;29;20578;-76
2022/04/11 11:04:20;;;;;;;4.18;1.40;;;;;;;11.11;36.40;101051.88;4913606;29;20037;-76
2022/04/11 11:06:45;;;;;;;3.63;1.17;;;;;;;11.08;33.35;101046.59;4909999;29;20083;-76
2022/04/11 11:09:15;;;;;;;3.08;0.85;;;;;;;11.29;34.46;101028.94;4914891;29;20122;-75
2022/04/11 11:11:41;;;;;;;2.92;1.20;;;;;;;11.63;34.45;101041.25;4914682;29;20514;-76
2022/04/11 11:14:40;;;;;;;5.20;1.05;;;;;;;11.54;34.68;101038.59;4911257;29;20032;-75
2022/04/11 11:17:05;;;;;;;3.17;0.95;;;;;;;11.61;34.78;101026.25;4912930;29;20407;-76
2022/04/11 11:19:30;;;;;;;2.88;1.10;;;;;;;11.95;34.14;101015.59;4914797;29;20055;-75
2022/04/11 11:21:57;;;;;;;2.72;1.17;;;;;;;11.97;34.35;101025.31;4913288;29;20039;-76
2022/04/11 11:24:22;;;;;;;2.80;0.95;;;;;;;12.30;37.68;101027.78;4914801;29;20043;-74
2022/04/11 11:26:52;;;;;;;3.03;1.15;;;;;;;12.49;33.39;101017.06;4914952;29;20040;-76
2022/04/11 11:29:26;;;;;;;2.47;0.80;;;;;;;12.35;33.49;101012.75;4914796;29;20040;-76
2022/04/11 11:31:55;;;;;;;3.45;1.10;;;;;;;12.34;32.99;101005.69;4911588;29;20043;-76